sensor_id;sensor_type;location;lat;lon;timestamp;pressure;altitude;pressure_sealevel;temperature;humidity
61357;BME280;47227;46.752;23.576;2023-05-07T00:54:02;96392.21;;;11.84;71.83
61357;BME280;47227;46.752;23.576;2023-05-07T00:56:31;96392.99;;;11.81;71.56
61357;BME280;47227;46.752;23.576;2023-05-07T00:59:01;96388.39;;;11.77;71.37
61357;BME280;47227;46.752;23.576;2023-05-07T01:01:29;96386.42;;;11.76;71.62
61357;BME280;47227;46.752;23.576;2023-05-07T01:03:57;96391.62;;;11.74;71.91
61357;BME280;47227;46.752;23.576;2023-05-07T01:06:27;96389.40;;;11.72;72.75
61357;BME280;47227;46.752;23.576;2023-05-07T01:08:57;96394.89;;;11.69;72.44
61357;BME280;47227;46.752;23.576;2023-05-07T01:11:26;96401.88;;;11.62;72.70
61357;BME280;47227;46.752;23.576;2023-05-07T01:13:54;96405.64;;;11.54;72.86
61357;BME280;47227;46.752;23.576;2023-05-07T01:16:22;96410.17;;;11.43;73.55
61357;BME280;47227;46.752;23.576;2023-05-07T01:18:50;96418.56;;;11.31;74.53
61357;BME280;47227;46.752;23.576;2023-05-07T01:21:25;96429.61;;;11.12;81.47
61357;BME280;47227;46.752;23.576;2023-05-07T01:23:55;96432.30;;;11.04;78.78
61357;BME280;47227;46.752;23.576;2023-05-07T01:26:24;96434.08;;;10.98;77.61
61357;BME280;47227;46.752;23.576;2023-05-07T01:28:52;96430.33;;;10.95;77.32
61357;BME280;47227;46.752;23.576;2023-05-07T01:31:20;96429.23;;;10.97;77.70
61357;BME280;47227;46.752;23.576;2023-05-07T01:33:49;96425.58;;;10.99;77.39
61357;BME280;47227;46.752;23.576;2023-05-07T01:36:23;96419.42;;;11.01;77.80
61357;BME280;47227;46.752;23.576;2023-05-07T01:38:55;96409.11;;;11.05;78.19
61357;BME280;47227;46.752;23.576;2023-05-07T01:41:26;96408.05;;;11.09;78.51
61357;BME280;47227;46.752;23.576;2023-05-07T01:43:54;96412.92;;;11.14;78.35
61357;BME280;47227;46.752;23.576;2023-05-07T01:46:23;96409.39;;;11.21;78.46
61357;BME280;47227;46.752;23.576;2023-05-07T01:48:52;96405.27;;;11.30;78.20
61357;BME280;47227;46.752;23.576;2023-05-07T01:51:21;96394.52;;;11.37;77.90
61357;BME280;47227;46.752;23.576;2023-05-07T01:53:52;96395.93;;;11.43;77.50
61357;BME280;47227;46.752;23.576;2023-05-07T01:56:21;96394.04;;;11.48;77.38
61357;BME280;47227;46.752;23.576;2023-05-07T01:58:50;96392.80;;;11.52;77.10
61357;BME280;47227;46.752;23.576;2023-05-07T02:01:19;96393.21;;;11.57;76.99
61357;BME280;47227;46.752;23.576;2023-05-07T02:03:48;96398.76;;;11.60;76.73
61357;BME280;47227;46.752;23.576;2023-05-07T02:06:20;96398.99;;;11.63;76.36
61357;BME280;47227;46.752;23.576;2023-05-07T02:08:48;96404.16;;;11.65;76.12
61357;BME280;47227;46.752;23.576;2023-05-07T02:11:16;96406.36;;;11.65;75.89
61357;BME280;47227;46.752;23.576;2023-05-07T02:13:44;96406.25;;;11.58;77.81
61357;BME280;47227;46.752;23.576;2023-05-07T02:16:13;96403.41;;;11.40;80.70
61357;BME280;47227;46.752;23.576;2023-05-07T02:18:42;96402.46;;;11.29;81.31
61357;BME280;47227;46.752;23.576;2023-05-07T02:21:10;96396.45;;;11.25;79.95
61357;BME280;47227;46.752;23.576;2023-05-07T02:23:38;96395.71;;;11.24;78.56
61357;BME280;47227;46.752;23.576;2023-05-07T02:26:06;96399.34;;;11.25;78.00
61357;BME280;47227;46.752;23.576;2023-05-07T02:28:34;96400.27;;;11.23;77.68
61357;BME280;47227;46.752;23.576;2023-05-07T02:31:05;96401.27;;;11.23;77.33
61357;BME280;47227;46.752;23.576;2023-05-07T02:33:34;96404.46;;;11.22;77.29
61357;BME280;47227;46.752;23.576;2023-05-07T02:36:09;96407.02;;;11.21;77.30
61357;BME280;47227;46.752;23.576;2023-05-07T02:38:44;96404.54;;;11.21;76.91
61357;BME280;47227;46.752;23.576;2023-05-07T02:41:12;96398.96;;;11.23;76.96
61357;BME280;47227;46.752;23.576;2023-05-07T02:43:40;96401.18;;;11.27;77.12
61357;BME280;47227;46.752;23.576;2023-05-07T02:46:09;96399.56;;;11.33;77.19
61357;BME280;47227;46.752;23.576;2023-05-07T02:48:41;96403.35;;;11.39;76.85
61357;BME280;47227;46.752;23.576;2023-05-07T02:51:09;96407.36;;;11.47;77.22
61357;BME280;47227;46.752;23.576;2023-05-07T02:53:38;96404.13;;;11.55;76.91
61357;BME280;47227;46.752;23.576;2023-05-07T02:56:07;96407.19;;;11.62;76.86
61357;BME280;47227;46.752;23.576;2023-05-07T02:58:35;96416.92;;;11.70;76.58
61357;BME280;47227;46.752;23.576;2023-05-07T03:01:03;96421.21;;;11.75;76.58
61357;BME280;47227;46.752;23.576;2023-05-07T03:03:37;96424.47;;;11.74;76.69
61357;BME280;47227;46.752;23.576;2023-05-07T03:06:05;96427.27;;;11.71;76.31
61357;BME280;47227;46.752;23.576;2023-05-07T03:08:34;96425.16;;;11.69;76.25
61357;BME280;47227;46.752;23.576;2023-05-07T03:11:02;96423.88;;;11.67;76.30
61357;BME280;47227;46.752;23.576;2023-05-07T03:13:31;96420.18;;;11.66;75.99
61357;BME280;47227;46.752;23.576;2023-05-07T03:15:59;96426.80;;;11.65;76.03
61357;BME280;47227;46.752;23.576;2023-05-07T03:18:27;96428.27;;;11.64;75.86
61357;BME280;47227;46.752;23.576;2023-05-07T03:20:55;96430.14;;;11.61;75.76
61357;BME280;47227;46.752;23.576;2023-05-07T03:23:24;96428.91;;;11.60;75.80
61357;BME280;47227;46.752;23.576;2023-05-07T03:25:54;96425.48;;;11.57;75.76
61357;BME280;47227;46.752;23.576;2023-05-07T03:28:22;96426.80;;;11.57;75.85
61357;BME280;47227;46.752;23.576;2023-05-07T03:30:54;96432.91;;;11.56;75.93
61357;BME280;47227;46.752;23.576;2023-05-07T03:33:23;96438.40;;;11.56;75.85
61357;BME280;47227;46.752;23.576;2023-05-07T03:35:51;96440.56;;;11.58;75.94
61357;BME280;47227;46.752;23.576;2023-05-07T03:38:22;96445.63;;;11.59;75.80
61357;BME280;47227;46.752;23.576;2023-05-07T03:40:50;96451.45;;;11.59;75.82
61357;BME280;47227;46.752;23.576;2023-05-07T03:43:18;96455.55;;;11.59;76.42
61357;BME280;47227;46.752;23.576;2023-05-07T03:45:51;96457.74;;;11.58;76.50
61357;BME280;47227;46.752;23.576;2023-05-07T03:48:24;96464.50;;;11.61;76.24
61357;BME280;47227;46.752;23.576;2023-05-07T03:50:53;96463.05;;;11.65;76.22
61357;BME280;47227;46.752;23.576;2023-05-07T03:53:21;96460.21;;;11.70;76.15
61357;BME280;47227;46.752;23.576;2023-05-07T03:55:49;96461.80;;;11.76;76.14
61357;BME280;47227;46.752;23.576;2023-05-07T03:58:18;96461.20;;;11.81;76.05
61357;BME280;47227;46.752;23.576;2023-05-07T04:00:47;96459.38;;;11.87;76.20
61357;BME280;47227;46.752;23.576;2023-05-07T04:03:22;96461.30;;;11.95;76.22
61357;BME280;47227;46.752;23.576;2023-05-07T04:05:51;96460.73;;;12.03;75.88
61357;BME280;47227;46.752;23.576;2023-05-07T04:08:19;96457.02;;;12.12;75.89
61357;BME280;47227;46.752;23.576;2023-05-07T04:11:00;96460.06;;;12.20;75.61
61357;BME280;47227;46.752;23.576;2023-05-07T04:13:30;96459.64;;;12.26;75.15
61357;BME280;47227;46.752;23.576;2023-05-07T04:16:02;96460.02;;;12.27;74.99
61357;BME280;47227;46.752;23.576;2023-05-07T04:18:30;96461.77;;;12.32;74.57
61357;BME280;47227;46.752;23.576;2023-05-07T04:20:58;96466.52;;;12.34;74.73
61357;BME280;47227;46.752;23.576;2023-05-07T04:23:26;96476.42;;;12.36;74.68
61357;BME280;47227;46.752;23.576;2023-05-07T04:25:54;96473.97;;;12.38;74.43
61357;BME280;47227;46.752;23.576;2023-05-07T04:28:27;96477.05;;;12.43;74.21
61357;BME280;47227;46.752;23.576;2023-05-07T04:30:55;96474.32;;;12.45;74.46
61357;BME280;47227;46.752;23.576;2023-05-07T04:33:23;96480.49;;;12.47;74.20
61357;BME280;47227;46.752;23.576;2023-05-07T04:35:51;96485.42;;;12.51;74.19
61357;BME280;47227;46.752;23.576;2023-05-07T04:38:19;96491.49;;;12.54;74.58
61357;BME280;47227;46.752;23.576;2023-05-07T04:40:49;96486.96;;;12.62;74.23
61357;BME280;47227;46.752;23.576;2023-05-07T04:43:19;96491.77;;;12.67;73.97
61357;BME280;47227;46.752;23.576;2023-05-07T04:45:50;96490.05;;;12.70;74.11
61357;BME280;47227;46.752;23.576;2023-05-07T04:48:19;96492.27;;;12.69;73.78
61357;BME280;47227;46.752;23.576;2023-05-07T04:50:49;96492.80;;;12.73;73.38
61357;BME280;47227;46.752;23.576;2023-05-07T04:53:19;96495.92;;;12.76;73.10
61357;BME280;47227;46.752;23.576;2023-05-07T04:55:55;96492.57;;;12.77;72.95
61357;BME280;47227;46.752;23.576;2023-05-07T04:58:28;96493.89;;;12.78;72.66
61357;BME280;47227;46.752;23.576;2023-05-07T05:00:59;96492.34;;;12.77;72.85
61357;BME280;47227;46.752;23.576;2023-05-07T05:03:28;96492.63;;;12.70;73.23
61357;BME280;47227;46.752;23.576;2023-05-07T05:05:58;96495.16;;;12.71;72.72
61357;BME280;47227;46.752;23.576;2023-05-07T05:08:30;96499.56;;;12.76;72.67
61357;BME280;47227;46.752;23.576;2023-05-07T05:11:01;96502.80;;;12.81;72.48
61357;BME280;47227;46.752;23.576;2023-05-07T05:13:31;96503.23;;;12.84;72.69
61357;BME280;47227;46.752;23.576;2023-05-07T05:19:27;96502.35;;;12.86;72.67
61357;BME280;47227;46.752;23.576;2023-05-07T10:41:32;96514.79;;;16.93;74.96
61357;BME280;47227;46.752;23.576;2023-05-07T10:48:19;96512.64;;;17.61;72.73
61357;BME280;47227;46.752;23.576;2023-05-07T10:52:15;96509.13;;;18.04;71.61
61357;BME280;47227;46.752;23.576;2023-05-07T10:55:23;96509.58;;;18.65;68.90
61357;BME280;47227;46.752;23.576;2023-05-07T11:02:03;96508.32;;;19.72;63.62
61357;BME280;47227;46.752;23.576;2023-05-07T11:04:38;96505.24;;;19.76;62.43
61357;BME280;47227;46.752;23.576;2023-05-07T11:14:46;96504.52;;;19.85;60.04
61357;BME280;47227;46.752;23.576;2023-05-07T11:17:20;96500.63;;;20.15;60.00
61357;BME280;47227;46.752;23.576;2023-05-07T11:19:55;96496.81;;;20.34;58.73
61357;BME280;47227;46.752;23.576;2023-05-07T11:22:50;96492.90;;;20.55;57.87
61357;BME280;47227;46.752;23.576;2023-05-07T11:25:27;96491.30;;;20.41;58.49
61357;BME280;47227;46.752;23.576;2023-05-07T11:28:06;96490.67;;;20.86;57.99
61357;BME280;47227;46.752;23.576;2023-05-07T11:30:35;96483.12;;;21.13;55.80
61357;BME280;47227;46.752;23.576;2023-05-07T11:33:05;96482.38;;;21.31;55.84
61357;BME280;47227;46.752;23.576;2023-05-07T11:35:34;96480.88;;;21.98;53.73
61357;BME280;47227;46.752;23.576;2023-05-07T11:38:04;96482.23;;;22.44;52.91
61357;BME280;47227;46.752;23.576;2023-05-07T13:36:25;96392.71;;;22.96;41.81
61357;BME280;47227;46.752;23.576;2023-05-07T17:04:43;96566.86;;;12.18;77.58
61357;BME280;47227;46.752;23.576;2023-05-07T17:07:11;96560.63;;;12.25;77.08
61357;BME280;47227;46.752;23.576;2023-05-07T17:09:41;96553.07;;;12.36;77.09
61357;BME280;47227;46.752;23.576;2023-05-07T17:12:09;96532.03;;;12.43;77.22
61357;BME280;47227;46.752;23.576;2023-05-07T17:14:37;96525.98;;;12.49;78.65
61357;BME280;47227;46.752;23.576;2023-05-07T17:17:05;96523.80;;;12.56;77.55
61357;BME280;47227;46.752;23.576;2023-05-07T17:19:38;96527.27;;;12.61;77.25
61357;BME280;47227;46.752;23.576;2023-05-07T17:22:10;96525.60;;;12.66;80.84
61357;BME280;47227;46.752;23.576;2023-05-07T17:24:38;96514.25;;;12.67;78.39
61357;BME280;47227;46.752;23.576;2023-05-07T17:27:06;96512.35;;;12.68;77.79
61357;BME280;47227;46.752;23.576;2023-05-07T17:29:34;96516.14;;;12.66;77.33
61357;BME280;47227;46.752;23.576;2023-05-07T17:32:02;96513.34;;;12.65;76.92
61357;BME280;47227;46.752;23.576;2023-05-07T17:34:32;96511.79;;;12.63;76.96
61357;BME280;47227;46.752;23.576;2023-05-07T17:37:01;96524.41;;;12.60;76.78
61357;BME280;47227;46.752;23.576;2023-05-07T17:39:30;96532.96;;;12.56;76.98
61357;BME280;47227;46.752;23.576;2023-05-07T17:42:00;96543.99;;;12.53;77.69
61357;BME280;47227;46.752;23.576;2023-05-07T17:44:28;96553.06;;;12.49;78.60
61357;BME280;47227;46.752;23.576;2023-05-07T17:46:56;96549.83;;;12.43;79.63
61357;BME280;47227;46.752;23.576;2023-05-07T17:49:24;96545.98;;;12.36;80.34
61357;BME280;47227;46.752;23.576;2023-05-07T17:51:52;96548.50;;;12.23;86.11
61357;BME280;47227;46.752;23.576;2023-05-07T17:54:23;96549.04;;;12.19;82.24
61357;BME280;47227;46.752;23.576;2023-05-07T17:56:53;96545.58;;;12.20;81.17
61357;BME280;47227;46.752;23.576;2023-05-07T17:59:21;96546.32;;;12.20;80.70
61357;BME280;47227;46.752;23.576;2023-05-07T18:01:49;96549.23;;;12.17;80.49
61357;BME280;47227;46.752;23.576;2023-05-07T18:04:17;96547.52;;;12.11;80.53
61357;BME280;47227;46.752;23.576;2023-05-07T19:20:27;96577.58;;;11.81;81.64
